aviador You're here:

KOVS Decoded Metar

BOSCOBEL in WI, USA
Report Time2017-11-24 08:53:00
UTC Time2017-11-24 09:10:36
Flight Rules vfr VFR
WindCalm
Visibility9999 m
Phenomena:N/A
Clouds:N/A
Expected CloudBase > 400 ft AGL from Temp-Dew spread
CeilingNone
Temp-3°C (ISA -17)
Dew Point-4°C (93% RH)
AAT-5.5°C
QNH1006 hPa
Density Alt-1,083 ft
Elevation663 ft
Report Wrong Elevation
Raw Report
METAR KOVS 240853Z AUTO 00000KT 10SM CLR M03/M04 A2970 RMK AO2 SLP063
T10281044 56026=

Extra information for KOVS:More info

Metar Taf Metar & Taf Last 4 Metars F.Rules Stats Wind Profile Meteogram Temp Stats Airport Information Weather charts Add Link Nearby VenuesMetar ALERT Operation Metar Decoded Social comments

AIRNAV info for KOVS